Time;durP1;ratioP1;P1;durP2;ratioP2;P2;SDS_P1;SDS_P2;PMS_P1;PMS_P2;Temp;Humidity;BMP_temperature;BMP_pressure;BME280_temperature;BME280_humidity;BME280_pressure;Samples;Min_cycle;Max_cycle;Signal;HPM_P1;HPM_P2
2022/11/13 00:00:36;;;;;;;18.02;13.00;;;;;;;11.31;76.30;99483.03;5093372;28;20031;-48
2022/11/13 00:03:01;;;;;;;16.77;13.18;;;;;;;11.26;76.82;99471.44;5093332;28;20024;-48
2022/11/13 00:05:27;;;;;;;20.35;13.75;;;;;;;11.22;76.97;99472.81;5091934;28;20563;-48
2022/11/13 00:07:53;;;;;;;17.25;11.68;;;;;;;11.33;77.64;99473.16;5093197;28;20566;-48
2022/11/13 00:10:19;;;;;;;20.00;10.60;;;;;;;11.72;77.98;99471.91;5093376;28;20035;-48
2022/11/13 00:12:44;;;;;;;17.42;11.55;;;;;;;12.01;77.00;99478.06;5093089;28;20030;-48
2022/11/13 00:15:10;;;;;;;18.65;11.23;;;;;;;12.24;76.18;99464.69;5091772;28;20032;-48
2022/11/13 00:17:35;;;;;;;16.20;11.55;;;;;;;12.21;75.39;99464.25;5092978;28;20414;-48
2022/11/13 00:20:01;;;;;;;17.80;11.68;;;;;;;12.02;75.21;99463.09;5091636;28;20085;-48
2022/11/13 00:22:27;;;;;;;15.45;12.35;;;;;;;11.83;75.30;99456.63;5092664;28;20078;-49
2022/11/13 00:24:53;;;;;;;15.73;12.13;;;;;;;11.72;75.58;99455.34;5091603;28;20416;-48
2022/11/13 00:27:19;;;;;;;16.42;12.75;;;;;;;11.60;75.75;99452.38;5092753;28;20023;-48
2022/11/13 00:29:44;;;;;;;17.85;13.48;;;;;;;11.40;75.66;99457.44;5091467;28;20027;-48
2022/11/13 00:32:10;;;;;;;18.55;13.63;;;;;;;11.19;76.22;99458.25;5092712;28;20027;-48
2022/11/13 00:34:35;;;;;;;23.80;15.27;;;;;;;10.99;77.01;99450.94;5092770;28;20451;-48
2022/11/13 00:37:01;;;;;;;42.53;23.35;;;;;;;10.93;78.17;99446.44;5092679;28;20554;-48
2022/11/13 00:39:26;;;;;;;33.47;20.30;;;;;;;10.96;78.88;99446.03;5092643;28;20020;-48
2022/11/13 00:41:52;;;;;;;29.13;17.45;;;;;;;10.93;79.16;99435.91;5092572;28;20102;-48
2022/11/13 00:44:18;;;;;;;30.70;19.38;;;;;;;11.18;80.47;99438.22;5091121;28;20022;-48
2022/11/13 00:46:43;;;;;;;33.33;16.65;;;;;;;11.62;80.36;99447.75;5091130;28;20521;-48
2022/11/13 00:49:09;;;;;;;61.83;24.20;;;;;;;12.00;79.27;99450.13;5092392;28;20043;-48
2022/11/13 00:51:34;;;;;;;43.40;18.70;;;;;;;12.00;78.63;99447.50;5091037;28;20028;-48
2022/11/13 00:54:00;;;;;;;58.45;23.60;;;;;;;12.18;78.72;99445.22;5091064;28;20482;-49
2022/11/13 00:56:26;;;;;;;61.42;23.52;;;;;;;12.32;78.00;99434.78;5092402;28;20020;-48
2022/11/13 00:58:51;;;;;;;76.82;27.98;;;;;;;12.32;77.65;99427.69;5090972;28;20077;-48
2022/11/13 01:01:18;;;;;;;50.15;22.92;;;;;;;12.19;77.09;99427.59;5092218;28;20028;-48
2022/11/13 01:03:44;;;;;;;84.57;24.83;;;;;;;12.11;77.27;99425.09;5091010;28;20024;-48
2022/11/13 01:06:22;;;;;;;184.18;27.50;;;;;;;12.06;77.63;99422.25;5090847;28;20100;-48
2022/11/13 01:08:48;;;;;;;64.30;24.92;;;;;;;12.01;77.91;99419.38;5091615;28;20016;-48
2022/11/13 01:11:18;;;;;;;98.68;25.92;;;;;;;11.93;77.62;99422.94;5092081;28;20067;-48
2022/11/13 01:13:47;;;;;;;63.90;27.50;;;;;;;11.89;78.05;99424.34;5090987;28;20093;-48
2022/11/13 01:16:15;;;;;;;59.08;26.15;;;;;;;11.83;78.13;99414.56;5090770;28;20078;-48
2022/11/13 01:18:41;;;;;;;105.88;28.45;;;;;;;11.82;78.54;99410.31;5092062;28;20016;-48
2022/11/13 01:21:18;;;;;;;88.43;26.40;;;;;;;11.83;78.54;99417.19;5092195;28;20055;-48
2022/11/13 01:23:44;;;;;;;98.03;27.75;;;;;;;11.83;78.48;99418.03;5091724;28;20105;-48
2022/11/13 01:26:28;;;;;;;54.10;26.35;;;;;;;11.78;78.99;99421.19;5091904;28;20024;-48
2022/11/13 01:28:56;;;;;;;51.85;25.98;;;;;;;11.83;78.78;99415.38;5090521;28;20031;-48
2022/11/13 01:31:24;;;;;;;64.93;25.88;;;;;;;11.96;79.14;99417.31;5090878;28;20046;-48
2022/11/13 01:33:50;;;;;;;110.93;28.75;;;;;;;11.98;78.74;99412.69;5091856;28;20016;-48
2022/11/13 01:36:22;;;;;;;87.85;27.60;;;;;;;11.99;79.00;99409.03;5090582;28;20020;-48
2022/11/13 01:38:49;;;;;;;67.68;27.67;;;;;;;11.93;78.97;99407.19;5091854;28;20578;-48
2022/11/13 01:41:24;;;;;;;131.25;28.63;;;;;;;11.91;79.46;99403.91;5091798;28;20439;-48
2022/11/13 01:43:51;;;;;;;78.68;28.15;;;;;;;11.88;79.35;99406.91;5091805;28;20032;-48
2022/11/13 01:46:21;;;;;;;132.00;27.23;;;;;;;11.82;79.24;99407.69;5090384;28;20027;-48
2022/11/13 01:48:54;;;;;;;140.57;26.33;;;;;;;11.79;79.39;99403.59;5091853;28;20043;-48
2022/11/13 01:51:30;;;;;;;132.18;26.27;;;;;;;11.76;79.58;99402.16;5091805;28;20028;-48
2022/11/13 01:53:56;;;;;;;;;;;;;;;11.70;79.16;99400.28;5090833;28;20055;-48
2022/11/13 01:56:22;;;;;;;127.47;26.67;;;;;;;11.70;80.06;99397.66;5091671;28;19916;-48
2022/11/13 01:58:54;;;;;;;69.60;27.25;;;;;;;11.65;79.61;99397.44;5090601;28;20032;-48
2022/11/13 02:01:19;;;;;;;98.72;26.50;;;;;;;11.62;79.47;99391.75;5091713;28;20101;-48
2022/11/13 02:03:45;;;;;;;148.70;27.63;;;;;;;11.60;79.86;99389.28;5090206;28;20498;-48
2022/11/13 02:06:12;;;;;;;47.17;25.02;;;;;;;11.63;80.43;99394.19;5090584;28;20059;-48
2022/11/13 02:08:38;;;;;;;74.65;25.13;;;;;;;11.80;80.28;99385.00;5091537;28;20027;-48
2022/11/13 02:11:04;;;;;;;158.40;27.35;;;;;;;11.82;80.12;99386.63;5090703;28;20032;-48
2022/11/13 02:13:31;;;;;;;79.93;24.13;;;;;;;11.77;79.81;99380.13;5091497;28;20027;-48
2022/11/13 02:15:57;;;;;;;96.95;25.50;;;;;;;11.77;79.50;99382.78;5090139;28;20397;-48
2022/11/13 02:18:25;;;;;;;38.17;21.77;;;;;;;11.75;79.72;99373.41;5090160;28;20027;-48
2022/11/13 02:20:59;;;;;;;66.15;23.35;;;;;;;11.85;79.98;99375.72;5093751;28;20506;-48
2022/11/13 02:23:56;;;;;;;116.53;21.63;;;;;;;11.78;79.24;99380.94;5093696;28;20210;-48
2022/11/13 02:26:25;;;;;;;92.82;20.70;;;;;;;11.56;79.08;99385.41;5093903;28;20020;-48
2022/11/13 02:28:51;;;;;;;125.20;24.10;;;;;;;11.37;79.74;99377.16;5093774;28;20052;-47
2022/11/13 02:31:16;;;;;;;102.18;21.95;;;;;;;11.14;79.79;99371.28;5095086;28;20450;-48
2022/11/13 02:33:42;;;;;;;109.95;22.15;;;;;;;10.90;80.27;99362.75;5095030;28;20055;-47
2022/11/13 02:36:10;;;;;;;54.03;23.27;;;;;;;10.77;81.06;99365.25;5095014;28;20055;-47
2022/11/13 02:38:39;;;;;;;76.57;22.50;;;;;;;10.78;82.10;99351.94;5093709;28;20069;-47
2022/11/13 02:41:05;;;;;;;77.95;21.88;;;;;;;10.82;82.32;99352.34;5094840;28;20031;-48
2022/11/13 02:43:30;;;;;;;69.13;22.40;;;;;;;10.81;81.93;99353.38;5093524;28;20557;-48
2022/11/13 02:45:56;;;;;;;87.97;23.00;;;;;;;10.74;82.05;99348.03;5094793;28;20052;-48
2022/11/13 02:48:22;;;;;;;70.95;21.90;;;;;;;10.74;82.44;99348.03;5094740;28;20036;-47
2022/11/13 02:50:47;;;;;;;109.28;21.33;;;;;;;10.71;82.34;99350.22;5094652;28;20024;-48
2022/11/13 02:53:13;;;;;;;84.53;19.13;;;;;;;10.69;82.34;99347.78;5093465;28;20036;-48
2022/11/13 02:55:38;;;;;;;92.55;19.17;;;;;;;10.68;82.29;99340.09;5094647;28;20016;-48
2022/11/13 02:58:04;;;;;;;73.32;19.45;;;;;;;10.63;81.82;99345.91;5093373;28;20028;-48
2022/11/13 03:00:30;;;;;;;60.05;18.55;;;;;;;10.55;82.06;99338.94;5094662;28;20020;-47
2022/11/13 03:02:55;;;;;;;89.80;19.20;;;;;;;10.51;82.21;99340.28;5093204;28;20513;-48
2022/11/13 03:05:24;;;;;;;95.43;16.80;;;;;;;10.42;81.67;99332.72;5094493;28;20093;-48
2022/11/13 03:07:49;;;;;;;53.85;16.20;;;;;;;10.31;81.87;99326.94;5093106;28;20048;-47
2022/11/13 03:10:15;;;;;;;67.68;17.50;;;;;;;10.32;82.18;99336.44;5094291;28;20105;-48
2022/11/13 03:12:41;;;;;;;32.03;14.48;;;;;;;10.35;82.41;99332.63;5094539;28;20054;-48
2022/11/13 03:15:07;;;;;;;44.22;13.05;;;;;;;10.34;82.13;99333.63;5092950;28;20178;-48
2022/11/13 03:17:34;;;;;;;47.60;12.52;;;;;;;10.32;81.71;99338.22;5092904;28;20032;-48
2022/11/13 03:19:59;;;;;;;28.88;12.90;;;;;;;10.34;81.67;99339.69;5093159;28;20027;-48
2022/11/13 03:22:26;;;;;;;59.10;13.80;;;;;;;10.35;81.16;99338.69;5092544;28;21189;-48
2022/11/13 03:24:51;;;;;;;30.15;12.20;;;;;;;10.27;81.14;99335.31;5094080;28;20217;-48
2022/11/13 03:27:17;;;;;;;32.70;12.20;;;;;;;10.37;81.16;99331.44;5094017;28;20024;-48
2022/11/13 03:29:43;;;;;;;44.05;13.68;;;;;;;10.47;80.75;99331.16;5093904;28;20032;-48
2022/11/13 03:32:08;;;;;;;33.70;12.65;;;;;;;10.51;80.23;99326.38;5092075;28;20032;-48
2022/11/13 03:34:34;;;;;;;55.10;13.02;;;;;;;10.56;79.91;99319.59;5075719;28;20505;-48
2022/11/13 03:36:59;;;;;;;31.23;13.23;;;;;;;10.58;79.35;99314.13;5094142;28;20024;-48
2022/11/13 03:39:25;;;;;;;36.15;12.35;;;;;;;10.64;79.59;99310.75;5093851;28;20020;-48
2022/11/13 03:41:51;;;;;;;42.72;13.02;;;;;;;10.65;78.66;99312.41;5092437;28;20448;-48
2022/11/13 03:44:16;;;;;;;35.58;13.63;;;;;;;10.57;78.08;99307.25;5092395;28;20031;-48
2022/11/13 03:46:42;;;;;;;39.53;12.93;;;;;;;10.53;78.33;99316.50;5093566;28;20059;-48
2022/11/13 03:49:08;;;;;;;23.90;12.30;;;;;;;10.55;78.18;99311.88;5093569;28;20021;-48
2022/11/13 03:51:33;;;;;;;24.02;12.70;;;;;;;10.56;77.90;99309.09;5093545;28;20035;-47
2022/11/13 03:53:59;;;;;;;34.00;13.32;;;;;;;10.49;77.82;99305.56;5092170;28;20012;-48
2022/11/13 03:56:25;;;;;;;30.40;12.98;;;;;;;10.33;77.49;99297.91;5093454;28;20489;-48
2022/11/13 03:58:51;;;;;;;28.13;13.18;;;;;;;10.26;78.24;99294.34;5092059;28;20016;-48
2022/11/13 04:01:16;;;;;;;19.80;13.30;;;;;;;10.31;78.49;99292.81;5092048;28;20059;-48
2022/11/13 04:03:42;;;;;;;46.65;14.45;;;;;;;10.30;77.42;99300.88;5093284;28;20028;-48
2022/11/13 04:06:08;;;;;;;30.48;13.90;;;;;;;10.15;77.13;99306.13;5092028;28;20028;-47
2022/11/13 04:08:34;;;;;;;31.90;13.43;;;;;;;10.04;77.33;99304.78;5091902;28;20032;-48
2022/11/13 04:11:11;;;;;;;17.45;12.70;;;;;;;10.00;77.98;99303.50;5093109;28;20035;-48
2022/11/13 04:13:37;;;;;;;20.70;12.50;;;;;;;10.08;77.52;99310.44;5093395;28;20396;-48
2022/11/13 04:16:04;;;;;;;17.75;11.38;;;;;;;9.92;77.21;99303.56;5091744;28;20031;-48
2022/11/13 04:18:29;;;;;;;19.48;11.68;;;;;;;9.83;77.51;99296.81;5093035;28;20020;-48
2022/11/13 04:20:59;;;;;;;13.23;10.80;;;;;;;9.71;77.41;99286.75;5091689;28;20404;-48
2022/11/13 04:23:24;;;;;;;19.50;12.50;;;;;;;9.55;76.90;99279.88;5092682;28;20048;-48
2022/11/13 04:25:50;;;;;;;15.98;11.75;;;;;;;9.38;76.65;99287.06;5092850;28;20024;-48
2022/11/13 04:28:16;;;;;;;21.30;12.25;;;;;;;9.18;76.96;99289.38;5093126;28;20038;-48
2022/11/13 04:30:41;;;;;;;18.80;12.70;;;;;;;9.00;77.26;99286.25;5091363;28;20020;-48
2022/11/13 04:33:07;;;;;;;13.93;12.15;;;;;;;9.06;78.34;99279.50;5092787;28;20028;-48
2022/11/13 04:35:33;;;;;;;13.90;11.55;;;;;;;9.13;77.98;99278.59;5092684;28;20088;-48
2022/11/13 04:37:59;;;;;;;18.23;13.07;;;;;;;9.07;77.37;99275.88;5092692;28;20024;-48
2022/11/13 04:40:25;;;;;;;15.25;12.77;;;;;;;8.86;77.39;99277.34;5092645;28;20020;-49
2022/11/13 04:42:50;;;;;;;150.40;15.77;;;;;;;8.66;77.61;99278.78;5090457;28;20063;-48
2022/11/13 04:45:21;;;;;;;50.40;14.63;;;;;;;8.49;78.87;99278.06;5091301;28;20432;-48
2022/11/13 04:47:47;;;;;;;58.92;14.93;;;;;;;8.35;78.79;99276.94;5091323;28;20107;-48
2022/11/13 04:50:14;;;;;;;133.63;15.88;;;;;;;8.26;79.90;99280.59;5092402;28;20469;-48
2022/11/13 04:52:40;;;;;;;91.90;16.13;;;;;;;8.22;79.91;99268.88;5091133;28;20028;-48
2022/11/13 04:55:07;;;;;;;22.50;14.30;;;;;;;8.23;80.65;99265.25;5092366;28;20028;-48
2022/11/13 04:57:33;;;;;;;45.20;14.35;;;;;;;8.25;80.36;99265.88;5092250;28;20035;-48
2022/11/13 04:59:59;;;;;;;174.93;17.02;;;;;;;8.24;80.63;99262.47;5091039;28;20020;-48
2022/11/13 05:02:24;;;;;;;22.17;13.45;;;;;;;8.27;80.88;99254.28;5092248;28;20028;-48
2022/11/13 05:04:50;;;;;;;17.02;13.45;;;;;;;8.55;81.28;99252.03;5092236;28;20512;-48
2022/11/13 05:07:16;;;;;;;31.65;13.25;;;;;;;8.73;81.40;99246.53;5092209;28;20088;-48
2022/11/13 05:09:41;;;;;;;23.67;13.65;;;;;;;8.90;81.26;99249.03;5092313;28;20024;-48
2022/11/13 05:12:07;;;;;;;20.65;12.93;;;;;;;9.23;81.38;99244.31;5090795;28;20478;-47
2022/11/13 05:14:36;;;;;;;51.35;12.70;;;;;;;9.75;80.83;99243.47;5092094;28;20016;-48
2022/11/13 05:17:02;;;;;;;97.22;14.15;;;;;;;10.12;79.50;99240.91;5092103;28;20028;-48
2022/11/13 05:19:28;;;;;;;30.80;12.38;;;;;;;10.17;77.93;99238.56;5092012;28;20048;-48
2022/11/13 05:21:54;;;;;;;23.25;12.70;;;;;;;10.11;77.37;99237.47;5090652;28;20082;-48
2022/11/13 05:24:19;;;;;;;24.48;12.90;;;;;;;10.10;77.49;99235.84;5091825;28;20048;-48
2022/11/13 05:26:45;;;;;;;33.92;13.70;;;;;;;10.15;77.25;99230.84;5091896;28;20098;-48
2022/11/13 05:29:11;;;;;;;22.55;13.70;;;;;;;10.02;76.61;99222.84;5090560;28;20024;-48
2022/11/13 05:31:36;;;;;;;57.38;13.98;;;;;;;9.92;76.26;99227.53;5091869;28;20067;-48
2022/11/13 05:34:03;;;;;;;136.38;15.13;;;;;;;9.78;76.55;99216.91;5091858;28;20436;-48
2022/11/13 05:36:29;;;;;;;34.88;13.15;;;;;;;9.60;77.01;99219.88;5090568;28;20027;-48
2022/11/13 05:38:55;;;;;;;56.33;13.90;;;;;;;9.52;77.08;99213.94;5091868;28;20028;-48
2022/11/13 05:41:21;;;;;;;27.40;14.07;;;;;;;9.47;77.24;99216.25;5090465;28;20371;-48
2022/11/13 05:43:47;;;;;;;83.80;15.23;;;;;;;9.43;77.43;99209.75;5090411;28;20035;-48
2022/11/13 05:46:17;;;;;;;42.08;14.82;;;;;;;9.41;77.74;99215.16;5090419;28;20051;-48
2022/11/13 05:48:43;;;;;;;98.68;15.10;;;;;;;9.35;77.28;99208.84;5091718;28;20486;-48
2022/11/13 05:51:14;;;;;;;29.95;15.00;;;;;;;9.29;77.42;99206.13;5091654;28;20020;-48
2022/11/13 05:53:41;;;;;;;61.88;14.80;;;;;;;9.25;77.68;99200.44;5092188;28;20023;-48
2022/11/13 05:56:11;;;;;;;82.35;15.75;;;;;;;9.19;77.75;99201.97;5095780;28;20043;-48
2022/11/13 05:58:37;;;;;;;64.50;15.38;;;;;;;9.39;79.19;99197.00;5094691;28;20028;-49
2022/11/13 06:01:08;;;;;;;30.17;14.73;;;;;;;9.78;79.45;99203.78;5095675;28;20034;-49
2022/11/13 06:03:34;;;;;;;42.53;14.57;;;;;;;10.02;78.61;99203.66;5095623;28;20020;-49
2022/11/13 06:06:00;;;;;;;29.40;14.13;;;;;;;10.12;77.96;99212.88;5095621;28;20390;-48
2022/11/13 06:08:26;;;;;;;36.90;13.85;;;;;;;10.22;77.74;99215.19;5095569;28;20028;-48
2022/11/13 06:10:51;;;;;;;44.75;14.80;;;;;;;10.22;76.60;99214.38;5077226;28;20038;-48
2022/11/13 06:13:17;;;;;;;82.65;15.27;;;;;;;10.13;76.60;99211.88;5095502;28;20478;-48
2022/11/13 06:15:43;;;;;;;106.40;16.88;;;;;;;10.06;76.36;99213.63;5095361;28;20031;-48
2022/11/13 06:18:08;;;;;;;82.40;17.02;;;;;;;9.93;76.53;99214.25;5095288;28;20390;-48
2022/11/13 06:20:37;;;;;;;133.95;16.75;;;;;;;9.81;76.68;99220.97;5093952;28;20035;-48
2022/11/13 06:23:02;;;;;;;178.02;17.05;;;;;;;9.67;76.79;99216.53;5094978;28;20135;-48
2022/11/13 06:25:28;;;;;;;237.35;19.52;;;;;;;9.53;77.11;99213.72;5093845;28;20112;-48
2022/11/13 06:27:54;;;;;;;90.20;17.02;;;;;;;9.42;77.64;99208.94;5095206;28;20028;-48
2022/11/13 06:30:20;;;;;;;50.97;18.95;;;;;;;9.47;78.37;99203.16;5094070;28;20020;-48
2022/11/13 06:32:52;;;;;;;69.28;15.18;;;;;;;9.55;78.79;99208.31;5095052;28;20020;-48
2022/11/13 06:35:18;;;;;;;46.53;17.38;;;;;;;9.62;78.82;99201.38;5095113;28;20389;-48
2022/11/13 06:37:43;;;;;;;141.65;18.33;;;;;;;9.63;78.56;99192.50;5093706;28;20039;-48
2022/11/13 06:40:09;;;;;;;126.30;16.52;;;;;;;9.58;78.33;99193.06;5095003;28;20031;-48
2022/11/13 06:42:35;;;;;;;94.07;17.35;;;;;;;9.54;78.48;99188.38;5093664;28;20472;-48
2022/11/13 06:45:01;;;;;;;35.70;16.27;;;;;;;9.51;78.43;99200.00;5094868;28;20048;-48
2022/11/13 06:47:27;;;;;;;70.13;16.40;;;;;;;9.56;78.90;99202.09;5093540;28;20024;-48
2022/11/13 06:49:53;;;;;;;71.25;18.00;;;;;;;9.54;78.85;99202.28;5094712;28;20551;-48
2022/11/13 06:52:19;;;;;;;81.88;17.77;;;;;;;9.52;78.76;99204.25;5094655;28;20028;-48
2022/11/13 06:54:44;;;;;;;79.90;16.70;;;;;;;9.54;79.30;99204.09;5110488;28;20028;-48
2022/11/13 06:57:10;;;;;;;62.67;16.40;;;;;;;9.62;79.05;99198.75;5093291;28;20039;-48
2022/11/13 06:59:36;;;;;;;88.45;17.95;;;;;;;9.62;78.75;99198.75;5093268;28;20101;-48
2022/11/13 07:02:02;;;;;;;80.47;18.40;;;;;;;9.59;78.58;99199.91;5094566;28;20375;-48
2022/11/13 07:04:27;;;;;;;52.33;17.40;;;;;;;9.60;78.97;99198.91;5093155;28;20486;-48
2022/11/13 07:06:53;;;;;;;39.72;17.88;;;;;;;9.66;79.17;99199.19;5093567;28;20024;-48
2022/11/13 07:09:18;;;;;;;157.50;19.35;;;;;;;9.85;79.44;99193.38;5094665;28;20028;-47
2022/11/13 07:11:44;;;;;;;86.57;18.20;;;;;;;10.14;79.35;99205.66;5093105;28;20035;-48
2022/11/13 07:14:11;;;;;;;42.13;14.88;;;;;;;10.26;78.73;99197.28;5094398;28;20016;-48
2022/11/13 07:16:37;;;;;;;62.17;17.92;;;;;;;10.39;78.08;99195.63;5094270;28;20082;-48
2022/11/13 07:19:03;;;;;;;46.58;16.17;;;;;;;10.47;77.82;99192.09;5094269;28;20529;-48
2022/11/13 07:21:29;;;;;;;101.03;17.13;;;;;;;10.58;77.55;99186.34;5094180;28;20050;-48
2022/11/13 07:23:55;;;;;;;47.22;16.65;;;;;;;10.62;76.12;99185.97;5093920;28;20054;-47
2022/11/13 07:26:21;;;;;;;38.30;18.65;;;;;;;10.59;76.41;99189.78;5094059;28;20030;-48
2022/11/13 07:28:48;;;;;;;76.00;17.80;;;;;;;10.63;76.23;99193.66;5093990;28;20028;-48
2022/11/13 07:31:16;;;;;;;46.55;18.33;;;;;;;10.55;76.38;99196.41;5109775;28;20020;-48
2022/11/13 07:33:42;;;;;;;194.02;18.25;;;;;;;10.62;76.06;99201.72;5092592;28;20030;-48
2022/11/13 07:36:08;;;;;;;36.85;17.02;;;;;;;10.61;75.72;99203.53;5093902;28;20371;-48
2022/11/13 07:38:36;;;;;;;52.28;16.42;;;;;;;10.57;75.33;99205.72;5093824;28;20111;-48
2022/11/13 07:41:01;;;;;;;33.90;16.00;;;;;;;10.56;75.27;99201.47;5093837;28;20082;-48
2022/11/13 07:43:27;;;;;;;35.58;16.10;;;;;;;10.51;74.95;99195.97;5093725;28;20024;-48
2022/11/13 07:45:54;;;;;;;37.20;15.98;;;;;;;10.49;75.44;99195.34;5093692;28;20564;-48
2022/11/13 07:48:23;;;;;;;41.38;16.35;;;;;;;10.49;75.75;99191.91;5093661;28;20020;-48
2022/11/13 07:50:50;;;;;;;30.23;16.30;;;;;;;10.70;76.44;99189.25;5093560;28;20069;-48
2022/11/13 07:53:17;;;;;;;46.53;16.80;;;;;;;10.99;76.00;99184.88;5092292;28;20458;-48
2022/11/13 07:55:42;;;;;;;67.35;17.80;;;;;;;11.13;74.68;99188.41;5093550;28;20050;-48
2022/11/13 07:58:08;;;;;;;52.58;16.17;;;;;;;11.06;74.27;99190.97;5093478;28;20063;-48
2022/11/13 08:00:34;;;;;;;58.30;16.98;;;;;;;10.97;73.85;99192.13;5093675;28;20034;-48
2022/11/13 08:03:05;;;;;;;56.53;16.10;;;;;;;10.89;74.08;99195.69;5093315;28;20031;-48
2022/11/13 08:05:31;;;;;;;38.72;16.13;;;;;;;10.82;74.07;99197.44;5093242;28;20062;-48
2022/11/13 08:07:56;;;;;;;41.10;17.15;;;;;;;10.78;74.05;99194.41;5091977;28;20067;-48
2022/11/13 08:10:22;;;;;;;42.72;15.70;;;;;;;10.73;74.23;99196.78;5093148;28;20077;-48
2022/11/13 08:12:48;;;;;;;35.30;15.63;;;;;;;10.72;74.53;99191.69;5092001;28;20084;-48
2022/11/13 08:15:16;;;;;;;26.65;16.50;;;;;;;10.71;74.36;99193.53;5091822;28;20035;-48
2022/11/13 08:17:42;;;;;;;53.50;17.70;;;;;;;10.75;74.32;99186.91;5093098;28;20027;-48
2022/11/13 08:20:08;;;;;;;51.15;16.75;;;;;;;10.81;74.32;99189.78;5091711;28;20028;-48
2022/11/13 08:22:34;;;;;;;33.65;16.73;;;;;;;10.90;74.78;99178.94;5092727;28;20032;-49
2022/11/13 08:25:03;;;;;;;33.05;15.95;;;;;;;10.99;74.39;99179.63;5091778;28;20028;-48
2022/11/13 08:27:28;;;;;;;73.82;15.82;;;;;;;10.98;73.66;99185.84;5091608;28;20084;-48
2022/11/13 08:29:54;;;;;;;25.92;17.08;;;;;;;10.94;74.02;99182.78;5092808;28;20053;-48
2022/11/13 08:32:21;;;;;;;64.63;19.50;;;;;;;11.01;73.87;99185.50;5092801;28;20024;-48
2022/11/13 08:34:49;;;;;;;55.22;17.33;;;;;;;10.95;73.54;99184.44;5092849;28;20158;-48
2022/11/13 08:37:15;;;;;;;34.58;15.23;;;;;;;10.84;73.12;99184.94;5092745;28;20111;-48
2022/11/13 08:39:40;;;;;;;29.85;16.05;;;;;;;10.90;73.96;99181.56;5091355;28;20119;-49
2022/11/13 08:42:06;;;;;;;28.10;15.02;;;;;;;10.98;73.63;99181.41;5092654;28;20085;-48
2022/11/13 08:44:32;;;;;;;51.88;16.80;;;;;;;10.96;72.91;99180.78;5091256;28;20493;-48
2022/11/13 08:46:57;;;;;;;34.60;16.13;;;;;;;10.92;73.12;99181.38;5091241;28;20020;-48
2022/11/13 08:49:23;;;;;;;25.85;17.60;;;;;;;10.98;72.84;99184.03;5092505;28;20036;-48
2022/11/13 08:51:49;;;;;;;28.70;18.40;;;;;;;11.05;73.00;99178.06;5092468;28;20021;-48
2022/11/13 08:54:14;;;;;;;32.17;18.95;;;;;;;11.18;73.10;99178.13;5092416;28;20031;-48
2022/11/13 08:56:40;;;;;;;24.00;16.70;;;;;;;11.34;73.45;99174.38;5091100;28;20024;-48
2022/11/13 08:59:05;;;;;;;21.30;16.15;;;;;;;11.58;72.85;99173.91;5091085;28;20028;-48
2022/11/13 09:01:31;;;;;;;24.92;16.75;;;;;;;11.70;72.76;99163.66;5092297;28;20062;-48
2022/11/13 09:03:57;;;;;;;29.13;17.90;;;;;;;11.91;72.54;99160.16;5092255;28;20584;-48
2022/11/13 09:06:24;;;;;;;32.00;19.75;;;;;;;12.02;70.88;99163.22;5092232;28;20028;-48
2022/11/13 09:08:50;;;;;;;26.05;18.40;;;;;;;11.89;70.60;99159.53;5091031;28;20498;-49
2022/11/13 09:11:15;;;;;;;27.80;17.85;;;;;;;11.88;70.69;99163.13;5090842;28;20026;-48
2022/11/13 09:13:41;;;;;;;23.67;17.75;;;;;;;11.83;70.41;99156.81;5090807;28;20047;-48
2022/11/13 09:16:07;;;;;;;24.75;19.25;;;;;;;11.74;70.70;99164.88;5090807;28;20553;-48
2022/11/13 09:18:32;;;;;;;23.83;16.92;;;;;;;11.95;71.23;99161.38;5092090;28;20020;-48
2022/11/13 09:21:02;;;;;;;28.17;18.52;;;;;;;12.13;70.94;99163.44;5090698;28;20035;-48
2022/11/13 09:23:28;;;;;;;26.40;21.00;;;;;;;11.91;69.72;99156.69;5090482;28;20066;-48
2022/11/13 09:25:54;;;;;;;25.92;19.38;;;;;;;11.55;70.83;99155.91;5090639;28;20024;-48
2022/11/13 09:28:20;;;;;;;26.88;19.55;;;;;;;11.36;71.31;99165.31;5091544;28;20032;-48
2022/11/13 09:30:45;;;;;;;27.98;17.35;;;;;;;11.09;71.71;99159.06;5091841;28;20016;-49
2022/11/13 09:33:14;;;;;;;22.85;17.15;;;;;;;11.15;72.64;99155.69;5107671;28;20024;-48
2022/11/13 09:35:41;;;;;;;19.25;16.38;;;;;;;11.36;72.34;99153.97;5090637;28;20012;-48
2022/11/13 09:38:13;;;;;;;22.08;16.60;;;;;;;11.58;72.83;99152.88;5091855;28;20055;-48
2022/11/13 09:40:42;;;;;;;21.30;16.08;;;;;;;11.82;72.03;99144.69;5090496;28;20024;-48
2022/11/13 09:43:37;;;;;;;25.25;15.98;;;;;;;12.11;71.98;99144.44;5090516;28;20024;-48
2022/11/13 09:46:35;;;;;;;19.35;14.90;;;;;;;12.34;70.31;99145.88;5029273;28;20037;-48
2022/11/13 09:49:14;;;;;;;22.98;15.27;;;;;;;12.10;70.32;99152.50;5025422;28;20434;-48
2022/11/13 09:51:50;;;;;;;17.20;14.23;;;;;;;12.10;69.98;99155.13;5029309;28;20087;-48
2022/11/13 09:54:17;;;;;;;18.17;14.75;;;;;;;11.80;70.72;99148.31;5029431;28;20517;-48
2022/11/13 09:56:50;;;;;;;20.00;15.80;;;;;;;11.60;70.88;99153.50;4996506;28;20168;-48
2022/11/13 09:59:30;;;;;;;20.75;15.40;;;;;;;11.69;71.88;99154.16;5029284;28;20071;-48
2022/11/13 10:02:10;;;;;;;15.63;13.32;;;;;;;12.13;71.00;99152.94;5029295;28;20052;-48
2022/11/13 10:04:45;;;;;;;19.23;14.20;;;;;;;12.30;70.20;99139.41;5029318;28;20045;-48
2022/11/13 10:07:35;;;;;;;22.55;15.90;;;;;;;12.49;70.07;99143.84;5029346;28;20037;-48
2022/11/13 10:10:25;;;;;;;20.55;15.50;;;;;;;12.52;69.81;99132.94;5029135;28;20450;-48
2022/11/13 10:12:55;;;;;;;19.45;14.90;;;;;;;12.53;69.41;99134.53;5029301;28;20224;-48
2022/11/13 10:15:21;;;;;;;23.10;15.52;;;;;;;12.58;70.39;99134.75;5029154;28;20044;-48
2022/11/13 10:17:56;;;;;;;22.35;14.63;;;;;;;12.89;69.66;99130.69;5029166;28;20033;-48
2022/11/13 10:20:31;;;;;;;22.95;15.32;;;;;;;13.11;69.62;99127.84;5029193;28;20029;-48
2022/11/13 10:23:28;;;;;;;18.08;14.68;;;;;;;13.23;68.47;99126.19;5066409;28;20040;-49
2022/11/13 10:25:59;;;;;;;27.13;15.93;;;;;;;13.08;68.64;99122.97;5091228;28;20040;-48
2022/11/13 10:28:26;;;;;;;49.97;16.33;;;;;;;13.08;69.13;99122.97;5091717;28;20401;-48
2022/11/13 10:30:52;;;;;;;31.15;15.40;;;;;;;13.20;68.23;99116.06;5090005;28;20031;-48
2022/11/13 10:33:20;;;;;;;43.03;16.50;;;;;;;13.42;69.09;99124.56;5089990;28;20028;-48
2022/11/13 10:36:15;;;;;;;42.28;15.35;;;;;;;13.64;68.71;99119.78;5091273;28;20032;-48
2022/11/13 10:38:55;;;;;;;16.58;14.13;;;;;;;13.74;67.78;99121.97;5090120;28;20066;-48
2022/11/13 10:41:21;;;;;;;18.63;15.10;;;;;;;13.61;66.93;99122.06;5091735;28;20032;-48
2022/11/13 10:44:05;;;;;;;18.77;14.70;;;;;;;13.50;67.80;99115.56;5094964;28;20027;-48
2022/11/13 10:46:31;;;;;;;21.23;14.77;;;;;;;13.69;68.17;99114.69;5095153;28;20389;-48
2022/11/13 10:49:09;;;;;;;20.33;15.00;;;;;;;13.85;67.34;99112.59;5093485;28;20034;-48
2022/11/13 10:51:36;;;;;;;16.38;14.38;;;;;;;13.92;66.88;99105.44;5094806;28;20038;-48
2022/11/13 10:54:20;;;;;;;17.77;13.45;;;;;;;13.93;66.92;99107.09;5093429;28;20031;-48
2022/11/13 10:57:03;;;;;;;16.92;13.30;;;;;;;13.91;66.64;99102.00;5093430;28;20050;-48
2022/11/13 10:59:43;;;;;;;16.70;12.82;;;;;;;13.94;67.31;99100.78;5094607;28;20028;-48
2022/11/13 11:02:15;;;;;;;19.55;13.70;;;;;;;14.04;66.40;99092.41;5094542;28;20024;-48
2022/11/13 11:04:41;;;;;;;15.65;13.95;;;;;;;13.94;66.42;99090.22;5093334;28;20421;-48
2022/11/13 11:07:22;;;;;;;15.40;13.73;;;;;;;13.86;66.19;99093.09;5094456;28;20017;-48
2022/11/13 11:09:50;;;;;;;16.30;13.98;;;;;;;13.77;66.59;99085.44;5094343;28;20520;-48
2022/11/13 11:12:19;;;;;;;21.55;13.63;;;;;;;14.00;67.42;99078.81;5094365;28;20024;-48
2022/11/13 11:14:57;;;;;;;16.52;13.73;;;;;;;14.13;66.21;99073.44;5094269;28;20020;-48
2022/11/13 11:17:29;;;;;;;14.93;13.40;;;;;;;14.01;65.64;99069.88;5094459;28;20127;-48
2022/11/13 11:20:04;;;;;;;14.85;13.25;;;;;;;13.94;67.10;99055.91;5094241;28;20032;-48
2022/11/13 11:22:35;;;;;;;20.67;12.45;;;;;;;14.17;66.76;99064.09;5092693;28;20052;-49